Time;durP1;ratioP1;P1;durP2;ratioP2;P2;SDS_P1;SDS_P2;PMS_P1;PMS_P2;Temp;Humidity;BMP_temperature;BMP_pressure;BME280_temperature;BME280_humidity;BME280_pressure;Samples;Min_cycle;Max_cycle;Signal;HPM_P1;HPM_P2
2023/08/21 00:00:04;;;;;;;1.80;0.50;;;;;;;26.20;50.85;95525.34;5084897;28;20481;-47
2023/08/21 00:02:34;;;;;;;0.73;0.60;;;;;;;26.04;50.27;95521.94;5111001;28;20435;-47
2023/08/21 00:05:03;;;;;;;0.97;0.93;;;;;;;26.02;50.11;95515.28;5111960;28;20837;-47
2023/08/21 00:07:32;;;;;;;0.63;0.53;;;;;;;25.86;50.13;95518.13;5111581;28;20500;-47
2023/08/21 00:10:00;;;;;;;0.70;0.70;;;;;;;25.84;49.99;95523.13;5112199;28;20497;-47
2023/08/21 00:12:28;;;;;;;1.00;0.70;;;;;;;25.62;50.28;95527.41;5111510;28;20463;-47
2023/08/21 00:14:56;;;;;;;1.33;0.73;;;;;;;25.65;50.59;95523.19;5102196;28;20464;-47
2023/08/21 00:17:25;;;;;;;0.60;0.50;;;;;;;25.56;50.58;95526.13;5107516;28;20566;-47
2023/08/21 00:19:54;;;;;;;0.60;0.50;;;;;;;25.76;51.70;95514.06;5112156;28;20443;-47
2023/08/21 00:22:23;;;;;;;0.63;0.40;;;;;;;25.88;50.47;95515.06;5111261;28;20432;-47
2023/08/21 00:24:51;;;;;;;0.63;0.50;;;;;;;25.88;49.80;95526.72;5111033;28;20532;-47
2023/08/21 00:27:19;;;;;;;3.43;0.80;;;;;;;25.78;50.40;95521.84;5111277;28;20428;-47
2023/08/21 00:29:48;;;;;;;0.43;0.30;;;;;;;26.08;49.97;95520.06;5111608;28;20439;-47
2023/08/21 00:32:16;;;;;;;0.50;0.43;;;;;;;26.16;49.43;95524.47;5111315;28;20464;-47
2023/08/21 00:34:44;;;;;;;0.87;0.87;;;;;;;25.89;50.25;95517.41;5104123;28;20826;-47
2023/08/21 00:37:14;;;;;;;1.30;0.93;;;;;;;25.73;50.57;95524.84;5111332;28;20482;-47
2023/08/21 00:39:42;;;;;;;0.50;0.40;;;;;;;25.92;49.84;95522.13;5111402;28;20469;-47
2023/08/21 00:42:11;;;;;;;0.50;0.40;;;;;;;25.99;50.47;95522.22;5085072;28;20795;-47
2023/08/21 00:44:39;;;;;;;0.73;0.73;;;;;;;25.71;51.11;95521.72;5111076;28;20439;-47
2023/08/21 00:47:07;;;;;;;0.80;0.50;;;;;;;25.88;49.65;95522.03;5111873;28;20527;-47
2023/08/21 00:49:36;;;;;;;3.83;0.77;;;;;;;25.73;50.23;95527.56;5110696;28;21022;-47
2023/08/21 00:52:05;;;;;;;1.03;0.90;;;;;;;25.64;49.80;95521.59;5111564;28;20940;-47
2023/08/21 00:54:35;;;;;;;0.90;0.70;;;;;;;25.82;49.90;95517.28;5111587;28;20508;-47
2023/08/21 00:57:04;;;;;;;0.80;0.80;;;;;;;25.97;49.77;95518.31;5111717;28;20514;-47
2023/08/21 00:59:32;;;;;;;0.40;0.40;;;;;;;25.96;51.50;95528.38;5112550;28;20436;-47
2023/08/21 01:02:01;;;;;;;0.50;0.30;;;;;;;26.05;50.12;95522.72;5115247;28;20968;-47
2023/08/21 01:04:29;;;;;;;0.50;0.40;;;;;;;25.90;49.83;95521.69;5114751;28;20949;-47
2023/08/21 01:06:58;;;;;;;0.60;0.50;;;;;;;25.80;50.22;95525.81;5114874;28;20474;-47
2023/08/21 01:09:42;;;;;;;1.33;0.40;;;;;;;25.84;50.77;95520.41;5114581;28;20541;-47
2023/08/21 01:12:19;;;;;;;1.10;1.00;;;;;;;25.51;51.14;95518.25;5114875;28;20446;-47
2023/08/21 01:14:55;;;;;;;0.60;0.30;;;;;;;25.51;50.69;95522.91;5115234;28;20432;-47
2023/08/21 01:17:25;;;;;;;0.80;0.40;;;;;;;25.57;50.68;95530.41;5114888;28;20529;-47
2023/08/21 01:19:55;;;;;;;0.73;0.40;;;;;;;25.55;51.05;95529.19;5114882;28;20442;-47
2023/08/21 01:22:27;;;;;;;0.70;0.50;;;;;;;25.54;50.73;95535.75;5114776;28;20432;-47
2023/08/21 01:24:57;;;;;;;0.50;0.40;;;;;;;25.64;50.61;95535.16;5114271;28;20432;-47
2023/08/21 01:27:25;;;;;;;3.50;0.40;;;;;;;25.65;50.82;95544.91;5114479;28;20436;-47
2023/08/21 01:29:54;;;;;;;0.67;0.50;;;;;;;25.52;50.94;95529.91;5114439;28;20917;-47
2023/08/21 01:32:28;;;;;;;2.07;1.13;;;;;;;25.17;51.64;95528.03;5114237;28;20455;-47
2023/08/21 01:35:00;;;;;;;0.50;0.40;;;;;;;25.44;51.78;95533.59;5113978;28;20443;-47
2023/08/21 01:37:29;;;;;;;0.50;0.50;;;;;;;25.09;51.07;95490.28;5114681;28;20688;-47
2023/08/21 01:40:00;;;;;;;0.50;0.40;;;;;;;25.04;52.26;95456.09;5113946;28;20436;-47
2023/08/21 01:42:29;;;;;;;0.60;0.60;;;;;;;25.27;50.82;95488.69;5114268;27;20444;-48
2023/08/21 01:44:57;;;;;;;0.77;0.77;;;;;;;25.58;50.34;95523.81;5113841;28;20508;-47
2023/08/21 01:47:26;;;;;;;0.87;0.87;;;;;;;25.42;50.98;95525.03;5114464;28;20461;-47
2023/08/21 01:49:54;;;;;;;0.40;0.30;;;;;;;25.35;51.69;95522.94;5113835;28;20480;-47
2023/08/21 01:52:22;;;;;;;1.10;0.50;;;;;;;25.15;51.01;95522.16;5114232;28;20493;-47
2023/08/21 01:54:52;;;;;;;0.67;0.67;;;;;;;25.33;51.52;95521.72;5113960;28;20439;-47
2023/08/21 01:57:22;;;;;;;0.50;0.40;;;;;;;25.38;50.82;95514.09;5113967;28;20479;-47
2023/08/21 01:59:51;;;;;;;0.50;0.33;;;;;;;24.45;50.84;95371.56;5113953;28;20439;-47
2023/08/21 02:02:19;;;;;;;0.40;0.30;;;;;;;25.50;50.99;95515.91;5113680;28;20450;-47
2023/08/21 02:04:48;;;;;;;0.50;0.30;;;;;;;25.53;51.37;95521.41;5113797;28;20428;-47
2023/08/21 02:07:16;;;;;;;0.50;0.43;;;;;;;25.55;51.94;95524.53;5113770;27;20443;-47
2023/08/21 02:09:44;;;;;;;0.50;0.30;;;;;;;25.42;51.08;95525.81;5114029;27;20440;-47
2023/08/21 02:12:12;;;;;;;0.90;0.60;;;;;;;25.42;51.69;95522.31;5112237;28;20452;-47
2023/08/21 02:14:42;;;;;;;0.47;0.30;;;;;;;25.27;51.53;95524.72;5113802;28;20440;-47
2023/08/21 02:17:11;;;;;;;2.60;0.80;;;;;;;24.91;52.33;95532.50;5113601;28;20555;-47
2023/08/21 02:19:39;;;;;;;1.60;0.40;;;;;;;24.67;52.87;95528.06;5113858;28;20436;-47
2023/08/21 02:22:07;;;;;;;0.50;0.33;;;;;;;24.46;53.69;95524.91;5112616;28;20436;-47
2023/08/21 02:24:36;;;;;;;0.53;0.50;;;;;;;24.65;53.08;95535.78;5113612;28;20518;-47
2023/08/21 02:27:04;;;;;;;0.50;0.30;;;;;;;24.60;53.29;95525.22;5113499;28;20882;-47
2023/08/21 02:29:32;;;;;;;0.60;0.60;;;;;;;24.61;53.53;95524.09;5113745;28;20460;-47
2023/08/21 02:32:02;;;;;;;0.70;0.47;;;;;;;24.68;53.15;95520.72;5112806;28;20431;-47
2023/08/21 02:34:30;;;;;;;0.50;0.40;;;;;;;24.51;53.15;95492.09;5113262;28;20451;-47
2023/08/21 02:36:59;;;;;;;0.53;0.40;;;;;;;24.87;53.35;95529.72;5112211;28;20471;-47
2023/08/21 02:39:27;;;;;;;0.83;0.73;;;;;;;24.84;52.66;95527.72;5112976;28;20879;-47
2023/08/21 02:41:55;;;;;;;0.50;0.40;;;;;;;24.90;52.98;95525.50;5112723;28;20451;-47
2023/08/21 02:44:24;;;;;;;0.60;0.57;;;;;;;24.55;53.26;95523.56;5113113;28;20450;-47
2023/08/21 02:46:52;;;;;;;0.73;0.73;;;;;;;24.56;53.55;95532.47;5112603;28;20467;-47
2023/08/21 02:49:22;;;;;;;0.60;0.40;;;;;;;24.82;53.58;95532.69;5112836;28;20501;-47
2023/08/21 02:51:50;;;;;;;0.60;0.43;;;;;;;25.05;52.46;95535.50;5112736;28;20443;-47
2023/08/21 02:54:18;;;;;;;0.50;0.50;;;;;;;25.04;52.09;95539.38;5112995;28;20565;-47
2023/08/21 02:56:48;;;;;;;0.77;0.50;;;;;;;25.15;52.13;95532.22;5112792;28;20432;-47
2023/08/21 02:59:16;;;;;;;0.50;0.40;;;;;;;25.13;53.54;95539.94;5112325;28;20538;-47
2023/08/21 03:01:44;;;;;;;0.50;0.30;;;;;;;24.93;52.21;95538.34;5112873;28;20432;-47
2023/08/21 03:04:13;;;;;;;0.70;0.70;;;;;;;25.08;51.80;95524.75;5112340;28;20436;-47
2023/08/21 03:06:42;;;;;;;2.30;0.70;;;;;;;25.17;52.89;95525.31;5113060;27;20432;-47
2023/08/21 03:09:11;;;;;;;0.50;0.40;;;;;;;24.85;52.27;95533.91;5112611;28;20436;-47
2023/08/21 03:11:39;;;;;;;0.60;0.50;;;;;;;25.15;52.15;95521.38;5112873;28;20462;-47
2023/08/21 03:14:07;;;;;;;0.53;0.43;;;;;;;25.11;51.90;95526.75;5112557;28;20497;-47
2023/08/21 03:16:35;;;;;;;0.50;0.50;;;;;;;25.15;52.73;95519.47;5112551;27;20440;-47
2023/08/21 03:19:04;;;;;;;0.70;0.70;;;;;;;25.16;53.11;95517.53;5112186;28;20483;-47
2023/08/21 03:21:32;;;;;;;0.93;0.47;;;;;;;25.31;53.37;95518.59;5112339;28;20435;-47
2023/08/21 03:24:02;;;;;;;0.80;0.43;;;;;;;25.46;53.03;95526.69;5111373;28;20497;-48
2023/08/21 03:26:32;;;;;;;1.40;0.40;;;;;;;25.37;51.78;95520.69;5112624;28;20431;-47
2023/08/21 03:29:01;;;;;;;0.70;0.57;;;;;;;25.14;51.29;95517.13;5112020;28;20439;-47
2023/08/21 03:31:29;;;;;;;0.60;0.40;;;;;;;25.27;52.72;95512.31;5112468;28;20462;-47
2023/08/21 03:33:57;;;;;;;0.50;0.40;;;;;;;25.23;51.39;95523.88;5112000;28;20440;-47
2023/08/21 03:36:31;;;;;;;0.40;0.30;;;;;;;25.21;52.98;95528.91;5111997;28;20886;-47
2023/08/21 03:38:59;;;;;;;0.60;0.53;;;;;;;25.10;54.01;95511.59;5111450;28;20479;-47
2023/08/21 03:41:29;;;;;;;0.60;0.47;;;;;;;24.94;52.18;95529.09;5111258;28;20516;-47
2023/08/21 03:43:57;;;;;;;0.50;0.40;;;;;;;24.95;51.98;95526.00;5099425;28;20551;-47
2023/08/21 03:46:25;;;;;;;0.50;0.40;;;;;;;25.09;52.90;95534.47;5111817;28;20444;-48
2023/08/21 03:48:54;;;;;;;0.50;0.30;;;;;;;24.97;51.67;95533.81;5111217;28;20475;-48
2023/08/21 03:51:22;;;;;;;0.53;0.53;;;;;;;24.91;52.77;95527.09;5111861;28;20509;-48
2023/08/21 03:53:51;;;;;;;0.53;0.33;;;;;;;24.63;52.80;95528.00;5111694;28;20440;-48
2023/08/21 03:56:19;;;;;;;0.70;0.50;;;;;;;24.67;52.87;95528.06;5111703;28;20464;-48
2023/08/21 03:58:49;;;;;;;0.70;0.70;;;;;;;24.85;53.10;95532.00;5111207;28;20557;-48
2023/08/21 04:01:17;;;;;;;0.80;0.80;;;;;;;24.77;52.53;95532.19;5111171;28;20427;-58
2023/08/21 04:03:46;;;;;;;1.53;0.93;;;;;;;24.54;53.06;95543.66;5111699;28;20551;-58
2023/08/21 04:06:14;;;;;;;0.60;0.60;;;;;;;24.65;53.74;95541.19;5111702;28;20467;-58
2023/08/21 04:08:42;;;;;;;0.90;0.57;;;;;;;24.80;54.38;95537.69;5111390;28;20496;-58
2023/08/21 04:11:11;;;;;;;1.00;0.63;;;;;;;24.77;52.67;95534.88;5111164;28;20436;-58
2023/08/21 04:13:39;;;;;;;0.47;0.33;;;;;;;24.92;53.90;95544.94;5111330;28;20996;-57
2023/08/21 04:16:10;;;;;;;0.40;0.30;;;;;;;24.89;51.92;95545.63;5111812;28;20508;-58
2023/08/21 04:18:39;;;;;;;0.80;0.50;;;;;;;24.71;52.80;95539.78;5111456;28;20467;-58
2023/08/21 04:21:09;;;;;;;0.80;0.60;;;;;;;24.70;53.16;95535.50;5085839;28;20462;-58
2023/08/21 04:23:38;;;;;;;0.70;0.70;;;;;;;24.64;53.52;95545.06;5111298;28;20443;-57
2023/08/21 04:26:07;;;;;;;0.60;0.60;;;;;;;24.56;52.89;95548.75;5111606;28;20439;-58
2023/08/21 04:28:36;;;;;;;1.00;1.00;;;;;;;24.45;53.35;95547.69;5110936;28;20439;-57
2023/08/21 04:31:05;;;;;;;0.60;0.57;;;;;;;24.42;54.51;95548.41;5106096;28;20498;-58
2023/08/21 04:33:36;;;;;;;0.60;0.40;;;;;;;24.53;54.04;95549.44;5107424;28;20444;-58
2023/08/21 04:36:05;;;;;;;5.70;0.40;;;;;;;24.69;53.30;95547.50;5114650;28;20530;-56
2023/08/21 04:38:33;;;;;;;0.73;0.70;;;;;;;24.79;52.83;95551.63;5114824;28;20865;-58
2023/08/21 04:41:08;;;;;;;0.50;0.40;;;;;;;24.86;53.83;95551.75;5115056;28;20462;-58
2023/08/21 04:43:37;;;;;;;1.00;0.90;;;;;;;24.72;52.81;95559.56;5114833;28;20431;-58
2023/08/21 04:46:05;;;;;;;0.80;0.60;;;;;;;24.55;53.31;95536.31;5115322;28;20440;-58
2023/08/21 04:48:35;;;;;;;0.67;0.50;;;;;;;24.79;52.48;95555.13;5114319;28;20550;-59
2023/08/21 04:51:07;;;;;;;1.00;0.70;;;;;;;24.78;52.98;95550.81;5115536;28;20518;-60
2023/08/21 04:53:38;;;;;;;0.93;0.93;;;;;;;24.73;52.58;95556.50;5089403;28;20947;-59
2023/08/21 04:56:07;;;;;;;2.03;0.93;;;;;;;24.51;52.86;95513.78;5115011;28;20436;-59
2023/08/21 04:58:35;;;;;;;1.53;1.13;;;;;;;24.77;52.41;95530.22;5114982;28;20470;-61
2023/08/21 05:01:05;;;;;;;0.50;0.30;;;;;;;25.22;52.67;95557.56;5114576;28;20436;-59
2023/08/21 05:03:35;;;;;;;0.60;0.57;;;;;;;25.27;52.08;95557.28;5115212;28;20525;-59
2023/08/21 05:06:04;;;;;;;0.97;0.90;;;;;;;25.23;52.26;95556.44;5114740;28;20428;-60
2023/08/21 05:08:32;;;;;;;2.30;1.13;;;;;;;25.38;52.01;95554.00;5114872;28;20516;-60
2023/08/21 05:11:01;;;;;;;0.80;0.80;;;;;;;25.53;51.31;95561.31;5114078;28;20941;-60
2023/08/21 05:13:30;;;;;;;1.63;0.57;;;;;;;25.71;52.29;95570.59;5114252;28;20436;-60
2023/08/21 05:15:59;;;;;;;2.03;0.90;;;;;;;25.79;50.69;95542.44;5114351;28;20448;-61
2023/08/21 05:18:28;;;;;;;0.70;0.60;;;;;;;26.13;49.76;95560.56;5115069;28;20471;-61
2023/08/21 05:20:58;;;;;;;0.63;0.63;;;;;;;26.28;50.58;95567.78;5114371;28;20478;-60
2023/08/21 05:23:26;;;;;;;0.60;0.60;;;;;;;26.29;50.33;95566.63;5114575;28;20436;-61
2023/08/21 05:25:55;;;;;;;0.80;0.50;;;;;;;26.46;50.00;95568.84;5113974;28;20461;-60
2023/08/21 05:28:23;;;;;;;0.70;0.60;;;;;;;26.55;49.87;95571.31;5114408;28;20938;-62
2023/08/21 05:30:51;;;;;;;0.50;0.50;;;;;;;26.24;50.00;95511.78;5114625;28;20439;-61
2023/08/21 05:33:20;;;;;;;1.00;1.00;;;;;;;26.43;49.24;95571.53;5114376;28;20446;-62
2023/08/21 05:35:48;;;;;;;0.70;0.70;;;;;;;26.61;50.03;95569.09;5114057;28;20524;-63
2023/08/21 05:38:18;;;;;;;2.87;0.63;;;;;;;26.58;50.11;95578.75;5114047;28;20443;-64
2023/08/21 05:40:46;;;;;;;0.67;0.67;;;;;;;26.96;49.59;95567.72;5114544;28;20467;-65
2023/08/21 05:43:14;;;;;;;1.00;0.47;;;;;;;26.70;48.39;95523.38;5100457;28;20474;-66
2023/08/21 05:45:43;;;;;;;0.67;0.67;;;;;;;26.99;48.38;95572.41;5113552;28;20522;-68
2023/08/21 05:48:13;;;;;;;0.90;0.87;;;;;;;26.96;48.75;95569.66;5113577;28;20443;-68
2023/08/21 05:50:42;;;;;;;4.93;1.03;;;;;;;26.99;48.21;95552.59;5114446;28;20440;-68
2023/08/21 05:53:11;;;;;;;0.50;0.50;;;;;;;27.52;48.10;95564.19;5113987;28;20428;-65
2023/08/21 05:55:41;;;;;;;1.47;1.37;;;;;;;27.40;47.92;95561.72;5114152;28;20436;-62
2023/08/21 05:58:09;;;;;;;1.53;0.70;;;;;;;27.77;46.86;95554.34;5114089;28;20432;-65
2023/08/21 06:00:40;;;;;;;0.70;0.63;;;;;;;27.98;46.94;95559.25;5114142;28;20988;-62
2023/08/21 06:03:08;;;;;;;0.40;0.40;;;;;;;28.50;46.49;95561.69;5113315;28;20957;-63
2023/08/21 06:05:37;;;;;;;0.40;0.40;;;;;;;28.80;46.17;95556.88;5113809;28;20435;-63
2023/08/21 06:08:05;;;;;;;0.40;0.30;;;;;;;29.01;44.97;95553.50;5113272;28;20492;-63
2023/08/21 06:10:33;;;;;;;0.50;0.50;;;;;;;29.46;44.23;95563.09;5114192;28;20777;-65
2023/08/21 06:13:03;;;;;;;0.70;0.70;;;;;;;29.59;44.21;95558.88;5113800;28;20500;-64
2023/08/21 06:15:32;;;;;;;0.70;0.70;;;;;;;29.96;43.30;95556.66;5113728;28;20535;-68
2023/08/21 06:18:00;;;;;;;0.70;0.60;;;;;;;29.88;43.49;95552.34;5114547;28;20500;-67
2023/08/21 06:20:29;;;;;;;0.53;0.53;;;;;;;30.05;44.10;95554.34;5115546;28;21008;-70
2023/08/21 06:22:57;;;;;;;0.57;0.50;;;;;;;30.54;42.41;95555.56;5114711;28;20431;-71
2023/08/21 06:25:25;;;;;;;0.53;0.50;;;;;;;30.78;42.31;95552.81;5113616;28;20450;-72
2023/08/21 06:27:54;;;;;;;0.40;0.40;;;;;;;31.00;43.26;95552.81;5113198;28;20842;-69
2023/08/21 06:30:28;;;;;;;0.70;0.67;;;;;;;30.59;42.82;95514.91;5111416;28;20466;-64
2023/08/21 06:32:57;;;;;;;0.53;0.53;;;;;;;31.11;42.37;95546.16;5111097;28;20443;-65
2023/08/21 06:35:25;;;;;;;0.40;0.30;;;;;;;31.37;41.34;95548.41;5111332;28;20431;-63
2023/08/21 06:37:54;;;;;;;0.50;0.30;;;;;;;31.38;40.81;95547.22;5111771;28;20526;-61
2023/08/21 06:40:23;;;;;;;0.63;0.50;;;;;;;31.72;40.46;95543.97;5112185;28;20479;-60
2023/08/21 06:42:52;;;;;;;0.60;0.60;;;;;;;31.60;39.20;95544.44;5112132;28;20451;-60
2023/08/21 06:45:21;;;;;;;0.40;0.30;;;;;;;31.91;39.86;95549.75;5113267;28;20439;-59
2023/08/21 06:47:52;;;;;;;0.50;0.40;;;;;;;32.22;39.01;95541.75;5113005;28;20492;-59
2023/08/21 06:50:21;;;;;;;0.47;0.30;;;;;;;32.38;39.49;95540.06;5085780;28;20546;-59
2023/08/21 06:52:49;;;;;;;0.67;0.33;;;;;;;32.57;38.64;95547.78;5112558;27;20434;-58
2023/08/21 06:55:18;;;;;;;0.80;0.80;;;;;;;32.13;38.27;95509.28;5112988;27;20439;-59
2023/08/21 06:57:46;;;;;;;0.70;0.70;;;;;;;32.63;37.88;95543.41;5112625;28;20439;-60
2023/08/21 07:00:15;;;;;;;0.40;0.40;;;;;;;32.94;37.52;95544.28;5112692;28;20483;-61
2023/08/21 07:02:43;;;;;;;0.43;0.40;;;;;;;32.72;37.16;95545.69;5112670;28;20472;-61
2023/08/21 07:05:13;;;;;;;0.80;0.43;;;;;;;32.57;36.55;95549.72;5112477;28;20435;-61
2023/08/21 07:07:42;;;;;;;0.90;0.90;;;;;;;33.01;36.75;95546.19;5113045;28;20437;-60
2023/08/21 07:10:10;;;;;;;1.70;1.60;;;;;;;33.33;36.00;95541.16;5112424;28;20482;-62
2023/08/21 07:12:39;;;;;;;0.50;0.30;;;;;;;33.66;36.07;95543.13;5112354;28;20472;-61
2023/08/21 07:15:08;;;;;;;0.40;0.33;;;;;;;33.94;36.04;95536.47;5111722;28;20439;-61
2023/08/21 07:17:37;;;;;;;0.50;0.50;;;;;;;34.28;35.96;95539.91;5111787;28;20434;-62
2023/08/21 07:20:06;;;;;;;0.70;0.57;;;;;;;33.95;34.92;95534.50;5112819;28;20563;-62
2023/08/21 07:22:36;;;;;;;0.60;0.60;;;;;;;34.24;35.62;95530.16;5112329;28;20876;-61
2023/08/21 07:25:06;;;;;;;2.23;0.57;;;;;;;33.92;35.65;95521.59;5112486;28;20453;-61
2023/08/21 07:27:34;;;;;;;1.40;0.40;;;;;;;34.30;35.55;95521.03;5111400;28;20944;-61
2023/08/21 07:30:03;;;;;;;0.63;0.60;;;;;;;33.98;35.10;95539.19;5112245;28;20435;-61
2023/08/21 07:32:31;;;;;;;0.40;0.30;;;;;;;33.94;35.61;95527.44;5086286;28;20508;-61
2023/08/21 07:34:59;;;;;;;0.50;0.40;;;;;;;33.73;34.67;95525.75;5111672;28;20438;-61
2023/08/21 07:37:28;;;;;;;0.63;0.60;;;;;;;33.53;35.34;95522.06;5111984;28;20449;-61
2023/08/21 07:39:58;;;;;;;1.80;0.50;;;;;;;33.93;35.33;95523.16;5111738;28;20470;-61
2023/08/21 07:42:26;;;;;;;0.40;0.40;;;;;;;33.58;34.90;95521.63;5111937;28;20522;-62
2023/08/21 07:44:54;;;;;;;0.67;0.67;;;;;;;33.49;34.18;95513.88;5111939;28;20435;-61
2023/08/21 07:47:23;;;;;;;0.73;0.47;;;;;;;33.93;35.19;95518.41;5112108;28;20446;-61
2023/08/21 07:49:51;;;;;;;0.40;0.40;;;;;;;33.39;35.23;95498.31;5111563;28;20504;-63
2023/08/21 07:52:19;;;;;;;0.50;0.40;;;;;;;33.21;35.50;95523.25;5111954;28;20503;-61
2023/08/21 07:54:48;;;;;;;0.40;0.30;;;;;;;33.37;35.66;95525.41;5111332;28;20452;-61
2023/08/21 07:57:18;;;;;;;0.40;0.40;;;;;;;33.17;35.93;95510.72;5111341;28;20959;-60
2023/08/21 07:59:46;;;;;;;0.60;0.60;;;;;;;33.75;35.10;95509.66;5110174;28;20973;-62
2023/08/21 08:02:14;;;;;;;0.50;0.47;;;;;;;33.39;35.31;95505.75;5111815;28;20957;-61
2023/08/21 08:04:43;;;;;;;0.40;0.40;;;;;;;33.40;35.67;95510.06;5111554;28;20450;-62
2023/08/21 08:07:11;;;;;;;0.50;0.40;;;;;;;33.97;35.21;95499.91;5111561;28;20437;-62
2023/08/21 08:09:40;;;;;;;0.63;0.43;;;;;;;34.50;32.91;95499.09;5115674;27;20996;-63
2023/08/21 08:12:09;;;;;;;0.40;0.40;;;;;;;34.36;34.98;95497.34;5118257;28;20470;-63
2023/08/21 08:14:39;;;;;;;0.73;0.73;;;;;;;34.56;34.29;95494.66;5118685;28;20450;-63
2023/08/21 08:17:07;;;;;;;0.40;0.33;;;;;;;34.31;34.06;95494.28;5118349;28;20525;-61
2023/08/21 08:19:35;;;;;;;0.50;0.50;;;;;;;33.76;35.43;95492.72;5117854;28;20461;-50
2023/08/21 08:22:04;;;;;;;3.77;0.40;;;;;;;34.31;34.27;95488.78;5117375;27;20995;-51
2023/08/21 08:24:32;;;;;;;0.50;0.40;;;;;;;34.76;34.99;95478.97;5118527;28;20431;-51
2023/08/21 08:27:01;;;;;;;0.40;0.30;;;;;;;35.41;32.31;95477.34;5117929;28;20484;-50
2023/08/21 08:29:30;;;;;;;0.40;0.33;;;;;;;35.78;32.98;95478.94;5117838;27;20434;-51
2023/08/21 08:32:00;;;;;;;0.50;0.50;;;;;;;36.24;32.14;95470.41;5118360;28;20243;-51
2023/08/21 08:34:28;;;;;;;0.50;0.50;;;;;;;36.62;32.79;95469.88;5118130;27;20219;-51
2023/08/21 08:36:56;;;;;;;0.40;0.30;;;;;;;36.85;32.11;95472.44;5118446;27;20221;-51
2023/08/21 08:39:25;;;;;;;0.52;0.52;;;;;;;36.63;31.38;95466.69;5117974;28;20214;-53
2023/08/21 08:41:59;;;;;;;0.45;0.40;;;;;;;36.64;31.83;95462.72;5116976;28;20216;-53
2023/08/21 08:44:28;;;;;;;0.50;0.50;;;;;;;35.78;31.16;95467.13;5118589;28;20223;-53
2023/08/21 08:46:57;;;;;;;0.95;0.95;;;;;;;35.41;31.37;95455.31;5098820;28;20221;-53
2023/08/21 08:49:27;;;;;;;0.52;0.40;;;;;;;34.54;31.25;95455.75;5110522;28;20228;-53
2023/08/21 08:51:56;;;;;;;2.23;2.20;;;;;;;35.91;32.43;95463.28;5117808;27;20209;-55
2023/08/21 08:54:26;;;;;;;0.47;0.30;;;;;;;36.88;30.22;95455.78;5118328;27;20193;-54
2023/08/21 08:56:54;;;;;;;0.40;0.40;;;;;;;37.70;30.64;95462.53;5092312;28;20314;-55
2023/08/21 08:59:23;;;;;;;0.40;0.32;;;;;;;37.84;28.42;95464.13;5117824;28;20279;-54
2023/08/21 09:01:51;;;;;;;1.00;1.00;;;;;;;36.71;29.72;95461.78;5117688;28;20645;-53
2023/08/21 09:04:19;;;;;;;0.47;0.47;;;;;;;35.83;29.45;95467.41;5117619;27;20200;-53
2023/08/21 09:06:49;;;;;;;0.50;0.50;;;;;;;36.99;27.91;95461.00;5118185;28;20214;-53
2023/08/21 09:09:18;;;;;;;0.50;0.50;;;;;;;37.58;27.86;95457.00;5117490;28;20250;-53
2023/08/21 09:11:48;;;;;;;0.75;0.75;;;;;;;37.12;28.03;95453.53;5117658;27;20193;-54
2023/08/21 09:14:16;;;;;;;0.50;0.50;;;;;;;37.53;28.01;95450.03;5117663;28;20662;-54
2023/08/21 09:17:01;;;;;;;0.38;0.38;;;;;;;39.01;26.38;95436.94;5118028;27;20196;-54
2023/08/21 09:19:29;;;;;;;4.00;0.50;;;;;;;39.24;26.83;95435.72;5117488;28;20642;-54
2023/08/21 09:21:59;;;;;;;0.40;0.40;;;;;;;39.38;27.85;95434.41;5115003;28;20366;-55
2023/08/21 09:24:27;;;;;;;0.73;0.60;;;;;;;39.01;26.84;95431.38;5114615;28;20662;-54
2023/08/21 09:26:56;;;;;;;0.60;0.60;;;;;;;40.31;26.96;95433.94;5101175;28;20201;-55
2023/08/21 09:29:25;;;;;;;0.40;0.38;;;;;;;40.90;26.63;95431.91;5114376;28;20417;-54
2023/08/21 09:31:57;;;;;;;0.40;0.40;;;;;;;40.07;25.87;95429.41;5114342;28;20208;-54
2023/08/21 09:34:34;;;;;;;0.50;0.50;;;;;;;39.33;26.02;95422.69;5114635;28;20200;-55
2023/08/21 09:37:06;;;;;;;0.30;0.30;;;;;;;39.38;25.85;95420.53;5114639;27;20197;-54
2023/08/21 09:39:36;;;;;;;0.40;0.40;;;;;;;39.63;27.05;95417.63;5104328;28;20609;-55
2023/08/21 09:42:06;;;;;;;0.43;0.43;;;;;;;39.18;26.07;95418.13;5112354;28;20701;-55
2023/08/21 09:44:39;;;;;;;0.60;0.55;;;;;;;39.42;26.51;95416.41;5114730;28;20231;-55
2023/08/21 09:47:10;;;;;;;0.30;0.30;;;;;;;39.55;24.46;95413.53;5114354;28;20193;-55
2023/08/21 09:49:40;;;;;;;2.05;0.52;;;;;;;39.94;26.58;95418.38;5112846;28;20659;-55
2023/08/21 09:52:11;;;;;;;0.60;0.60;;;;;;;39.05;25.76;95420.16;5113884;28;20189;-55
2023/08/21 09:54:39;;;;;;;0.40;0.40;;;;;;;39.55;26.23;95400.44;5114144;28;20712;-58
2023/08/21 09:57:08;;;;;;;1.17;0.30;;;;;;;40.11;24.58;95399.47;5114486;28;20281;-59
2023/08/21 09:59:39;;;;;;;0.63;0.63;;;;;;;40.63;24.35;95401.28;5113426;28;20281;-59
2023/08/21 10:02:10;;;;;;;4.32;0.40;;;;;;;39.84;25.63;95400.91;5114136;28;20237;-59
2023/08/21 10:04:43;;;;;;;5.07;0.43;;;;;;;40.07;24.67;95405.19;5113582;28;20201;-59
2023/08/21 10:07:17;;;;;;;0.38;0.38;;;;;;;39.77;24.66;95403.97;5113534;28;20204;-59
2023/08/21 10:09:48;;;;;;;0.32;0.32;;;;;;;39.70;24.97;95398.69;5114009;28;20631;-60
2023/08/21 10:12:19;;;;;;;0.50;0.50;;;;;;;39.56;25.27;95388.13;5113048;28;20672;-59
2023/08/21 10:14:47;;;;;;;0.75;0.68;;;;;;;39.64;25.08;95396.97;5113200;28;20196;-60
2023/08/21 10:17:16;;;;;;;0.40;0.40;;;;;;;40.18;24.46;95393.66;5113551;28;20205;-60
2023/08/21 10:19:52;;;;;;;0.50;0.50;;;;;;;40.40;24.57;95386.75;5113832;28;20631;-60
2023/08/21 10:22:44;;;;;;;0.68;0.40;;;;;;;40.52;24.55;95387.84;5113543;28;20213;-61
2023/08/21 10:25:17;;;;;;;0.77;0.70;;;;;;;40.00;23.16;95352.69;5113157;28;20201;-61
2023/08/21 10:27:47;;;;;;;0.35;0.35;;;;;;;39.11;23.53;95354.59;5113809;28;20193;-61
2023/08/21 10:30:20;;;;;;;0.90;0.45;;;;;;;40.28;23.93;95392.44;5113082;28;20193;-60
2023/08/21 10:32:50;;;;;;;0.40;0.40;;;;;;;40.56;24.37;95394.78;5112880;28;20185;-61
2023/08/21 10:35:20;;;;;;;0.30;0.30;;;;;;;41.19;23.36;95391.22;5112395;28;20280;-62
2023/08/21 10:38:10;;;;;;;0.50;0.50;;;;;;;41.33;24.27;95386.28;5113558;28;20192;-61
2023/08/21 10:40:39;;;;;;;0.40;0.40;;;;;;;40.42;24.43;95322.38;5087851;28;20197;-61
2023/08/21 10:43:38;;;;;;;0.70;0.70;;;;;;;40.15;24.97;95387.00;5113078;28;20261;-61
2023/08/21 10:46:07;;;;;;;0.55;0.52;;;;;;;41.14;23.64;95366.81;5113160;28;20287;-61
2023/08/21 10:48:35;;;;;;;0.70;0.45;;;;;;;40.86;22.72;95373.63;5112483;28;20232;-61
2023/08/21 10:51:05;;;;;;;0.40;0.40;;;;;;;40.91;22.26;95381.38;5113220;28;20224;-61
2023/08/21 10:53:35;;;;;;;0.73;0.45;;;;;;;39.80;23.41;95375.28;5112784;28;20226;-60
2023/08/21 10:56:05;;;;;;;1.20;0.80;;;;;;;39.01;24.67;95375.16;5112533;28;20197;-60
2023/08/21 10:58:36;;;;;;;0.30;0.30;;;;;;;38.62;25.08;95294.19;5113027;28;20196;-60
2023/08/21 11:01:04;;;;;;;0.52;0.50;;;;;;;39.05;25.16;95367.47;5111968;28;20197;-59
2023/08/21 11:03:35;;;;;;;0.47;0.45;;;;;;;39.78;25.43;95374.97;5112715;28;20188;-60
2023/08/21 11:06:05;;;;;;;0.40;0.40;;;;;;;39.99;23.92;95370.56;5112949;28;20201;-62
2023/08/21 11:08:36;;;;;;;0.40;0.40;;;;;;;40.35;23.96;95356.00;5115633;28;20228;-60
2023/08/21 11:11:06;;;;;;;0.40;0.40;;;;;;;40.61;24.09;95339.84;5111670;28;20304;-60
2023/08/21 11:13:34;;;;;;;0.50;0.50;;;;;;;40.55;24.41;95325.78;5112368;28;20638;-60
2023/08/21 11:16:05;;;;;;;0.40;0.30;;;;;;;39.61;24.52;95367.38;5111796;28;20207;-60
2023/08/21 11:18:34;;;;;;;0.50;0.40;;;;;;;41.00;22.67;95366.69;5112385;28;20627;-60
2023/08/21 11:21:08;;;;;;;0.30;0.30;;;;;;;41.60;22.55;95364.69;5112368;28;20208;-60
2023/08/21 11:23:39;;;;;;;0.30;0.30;;;;;;;41.55;23.84;95353.44;5112112;28;20220;-62
2023/08/21 11:26:11;;;;;;;10.73;0.60;;;;;;;40.91;24.01;95348.00;5112734;28;20552;-60
2023/08/21 11:28:49;;;;;;;0.50;0.50;;;;;;;41.55;23.11;95328.38;5111987;28;20193;-60
2023/08/21 11:31:18;;;;;;;1.48;0.60;;;;;;;39.89;23.24;95347.56;5112232;28;20417;-59
2023/08/21 11:33:51;;;;;;;0.55;0.55;;;;;;;40.33;23.35;95345.34;5111908;28;20189;-59
2023/08/21 11:36:20;;;;;;;0.50;0.50;;;;;;;40.30;23.77;95359.41;5111862;28;20189;-60
2023/08/21 11:39:01;;;;;;;3.15;0.50;;;;;;;40.47;23.10;95349.56;5112017;28;20235;-61
2023/08/21 11:41:30;;;;;;;0.50;0.40;;;;;;;39.01;24.09;95350.22;5111563;28;20593;-59
2023/08/21 11:44:04;;;;;;;0.63;0.63;;;;;;;38.30;24.92;95340.88;5109489;28;20200;-57